Highland Lake, New York
Current Conditions -  °F | °C
As of 7:35 PM on Monday 24 Nov 2014 (Local Time) from KMSV Reporting Station
Clear Clear  
Wind Chill: 57°   Ceiling: Unl
Heat Index: 57°   Visibility: 10mi
Dew Point: 52°   Wind: 13mph
Humidity: 82%   Direction: 210°SSW
Pressure: 29.65"   Gusts: 22mph
Location:  41.52°N, 74.85°W
Report Text: KMSV 250035Z AUTO 21011G19KT 170V240 10SM CLR 14/11 A2965 RMK AO1
Loading
Personal Weather Stations






























Interactive Weather Map New forecast layout! Learn more

10-Day Weather Forecast

Advertisements
Track Severe Weather on mobile